sensor_id;sensor_type;location;lat;lon;timestamp;P1;P2;P0
57884;PMS5003;43703;51.060;-0.086;2023-04-03T00:01:51;2;2;
57884;PMS5003;43703;51.060;-0.086;2023-04-03T00:04:16;3;3;
57884;PMS5003;43703;51.060;-0.086;2023-04-03T00:06:41;4;4;
57884;PMS5003;43703;51.060;-0.086;2023-04-03T00:09:06;3;3;
57884;PMS5003;43703;51.060;-0.086;2023-04-03T00:11:31;4;3;
57884;PMS5003;43703;51.060;-0.086;2023-04-03T00:13:56;3;3;
57884;PMS5003;43703;51.060;-0.086;2023-04-03T00:16:21;3;3;
57884;PMS5003;43703;51.060;-0.086;2023-04-03T00:18:47;6;6;
57884;PMS5003;43703;51.060;-0.086;2023-04-03T00:21:13;3;2;
57884;PMS5003;43703;51.060;-0.086;2023-04-03T00:23:38;2;2;
57884;PMS5003;43703;51.060;-0.086;2023-04-03T00:26:03;6;6;
57884;PMS5003;43703;51.060;-0.086;2023-04-03T00:28:29;4;4;
57884;PMS5003;43703;51.060;-0.086;2023-04-03T00:30:54;3;2;
57884;PMS5003;43703;51.060;-0.086;2023-04-03T00:33:19;4;4;
57884;PMS5003;43703;51.060;-0.086;2023-04-03T00:35:44;9;4;
57884;PMS5003;43703;51.060;-0.086;2023-04-03T00:38:09;3;3;
57884;PMS5003;43703;51.060;-0.086;2023-04-03T00:40:35;4;3;
57884;PMS5003;43703;51.060;-0.086;2023-04-03T00:43:00;3;3;
57884;PMS5003;43703;51.060;-0.086;2023-04-03T00:45:28;7;6;
57884;PMS5003;43703;51.060;-0.086;2023-04-03T00:47:50;4;3;
57884;PMS5003;43703;51.060;-0.086;2023-04-03T00:50:16;3;3;
57884;PMS5003;43703;51.060;-0.086;2023-04-03T00:52:41;5;5;
57884;PMS5003;43703;51.060;-0.086;2023-04-03T00:55:07;4;3;
57884;PMS5003;43703;51.060;-0.086;2023-04-03T00:57:31;4;4;
57884;PMS5003;43703;51.060;-0.086;2023-04-03T00:59:57;6;4;
57884;PMS5003;43703;51.060;-0.086;2023-04-03T01:02:21;3;3;
57884;PMS5003;43703;51.060;-0.086;2023-04-03T01:04:46;3;3;
57884;PMS5003;43703;51.060;-0.086;2023-04-03T01:07:12;6;3;
57884;PMS5003;43703;51.060;-0.086;2023-04-03T01:09:37;8;7;
57884;PMS5003;43703;51.060;-0.086;2023-04-03T01:14:27;5;5;
57884;PMS5003;43703;51.060;-0.086;2023-04-03T01:16:53;3;3;
57884;PMS5003;43703;51.060;-0.086;2023-04-03T01:19:17;3;3;
57884;PMS5003;43703;51.060;-0.086;2023-04-03T01:24:11;6;4;
57884;PMS5003;43703;51.060;-0.086;2023-04-03T01:26:33;5;4;
57884;PMS5003;43703;51.060;-0.086;2023-04-03T01:28:59;3;2;
57884;PMS5003;43703;51.060;-0.086;2023-04-03T01:31:24;6;4;
57884;PMS5003;43703;51.060;-0.086;2023-04-03T01:33:49;4;4;
57884;PMS5003;43703;51.060;-0.086;2023-04-03T01:36:15;6;5;
57884;PMS5003;43703;51.060;-0.086;2023-04-03T01:38:39;4;3;
57884;PMS5003;43703;51.060;-0.086;2023-04-03T01:41:04;5;3;
57884;PMS5003;43703;51.060;-0.086;2023-04-03T01:43:29;3;3;
57884;PMS5003;43703;51.060;-0.086;2023-04-03T01:45:54;3;3;
57884;PMS5003;43703;51.060;-0.086;2023-04-03T01:48:19;1;1;
57884;PMS5003;43703;51.060;-0.086;2023-04-03T01:50:44;5;5;
57884;PMS5003;43703;51.060;-0.086;2023-04-03T01:53:10;4;3;
57884;PMS5003;43703;51.060;-0.086;2023-04-03T01:55:35;4;2;
57884;PMS5003;43703;51.060;-0.086;2023-04-03T01:58:00;6;3;
57884;PMS5003;43703;51.060;-0.086;2023-04-03T02:00:25;5;5;
57884;PMS5003;43703;51.060;-0.086;2023-04-03T02:02:51;2;2;
57884;PMS5003;43703;51.060;-0.086;2023-04-03T02:05:16;3;3;
57884;PMS5003;43703;51.060;-0.086;2023-04-03T02:07:41;5;4;
57884;PMS5003;43703;51.060;-0.086;2023-04-03T02:10:06;2;2;
57884;PMS5003;43703;51.060;-0.086;2023-04-03T02:12:31;3;3;
57884;PMS5003;43703;51.060;-0.086;2023-04-03T02:14:56;4;4;
57884;PMS5003;43703;51.060;-0.086;2023-04-03T02:17:21;6;6;
57884;PMS5003;43703;51.060;-0.086;2023-04-03T02:19:46;3;3;
57884;PMS5003;43703;51.060;-0.086;2023-04-03T02:22:11;2;2;
57884;PMS5003;43703;51.060;-0.086;2023-04-03T02:24:37;5;5;
57884;PMS5003;43703;51.060;-0.086;2023-04-03T02:27:04;3;3;
57884;PMS5003;43703;51.060;-0.086;2023-04-03T02:29:27;3;3;
57884;PMS5003;43703;51.060;-0.086;2023-04-03T02:31:52;5;4;
57884;PMS5003;43703;51.060;-0.086;2023-04-03T02:34:17;6;4;
57884;PMS5003;43703;51.060;-0.086;2023-04-03T02:36:43;5;5;
57884;PMS5003;43703;51.060;-0.086;2023-04-03T02:39:08;3;3;
57884;PMS5003;43703;51.060;-0.086;2023-04-03T02:41:33;9;4;
57884;PMS5003;43703;51.060;-0.086;2023-04-03T02:43:58;4;4;
57884;PMS5003;43703;51.060;-0.086;2023-04-03T02:46:23;5;5;
57884;PMS5003;43703;51.060;-0.086;2023-04-03T02:48:48;4;3;
57884;PMS5003;43703;51.060;-0.086;2023-04-03T02:51:14;3;3;
57884;PMS5003;43703;51.060;-0.086;2023-04-03T02:53:39;3;3;
57884;PMS5003;43703;51.060;-0.086;2023-04-03T02:56:04;6;3;
57884;PMS5003;43703;51.060;-0.086;2023-04-03T02:58:29;2;2;
57884;PMS5003;43703;51.060;-0.086;2023-04-03T03:00:54;4;4;
57884;PMS5003;43703;51.060;-0.086;2023-04-03T03:03:20;5;4;
57884;PMS5003;43703;51.060;-0.086;2023-04-03T03:05:45;4;4;
57884;PMS5003;43703;51.060;-0.086;2023-04-03T03:08:11;3;3;
57884;PMS5003;43703;51.060;-0.086;2023-04-03T03:10:36;4;4;
57884;PMS5003;43703;51.060;-0.086;2023-04-03T03:13:01;4;4;
57884;PMS5003;43703;51.060;-0.086;2023-04-03T03:15:26;4;4;
57884;PMS5003;43703;51.060;-0.086;2023-04-03T03:17:51;3;3;
57884;PMS5003;43703;51.060;-0.086;2023-04-03T03:20:16;2;2;
57884;PMS5003;43703;51.060;-0.086;2023-04-03T03:22:42;3;3;
57884;PMS5003;43703;51.060;-0.086;2023-04-03T03:25:07;4;3;
57884;PMS5003;43703;51.060;-0.086;2023-04-03T03:27:32;7;6;
57884;PMS5003;43703;51.060;-0.086;2023-04-03T03:29:57;6;5;
57884;PMS5003;43703;51.060;-0.086;2023-04-03T03:32:23;6;4;
57884;PMS5003;43703;51.060;-0.086;2023-04-03T03:34:48;6;6;
57884;PMS5003;43703;51.060;-0.086;2023-04-03T03:37:13;5;5;
57884;PMS5003;43703;51.060;-0.086;2023-04-03T03:39:38;3;3;
57884;PMS5003;43703;51.060;-0.086;2023-04-03T03:42:03;5;2;
57884;PMS5003;43703;51.060;-0.086;2023-04-03T03:44:28;4;3;
57884;PMS5003;43703;51.060;-0.086;2023-04-03T03:46:53;4;4;
57884;PMS5003;43703;51.060;-0.086;2023-04-03T03:49:18;4;4;
57884;PMS5003;43703;51.060;-0.086;2023-04-03T03:51:43;5;3;
57884;PMS5003;43703;51.060;-0.086;2023-04-03T03:54:09;6;6;
57884;PMS5003;43703;51.060;-0.086;2023-04-03T03:56:34;2;2;
57884;PMS5003;43703;51.060;-0.086;2023-04-03T03:58:59;3;3;
57884;PMS5003;43703;51.060;-0.086;2023-04-03T04:01:24;4;4;
57884;PMS5003;43703;51.060;-0.086;2023-04-03T04:03:49;5;5;
57884;PMS5003;43703;51.060;-0.086;2023-04-03T04:06:14;4;4;
57884;PMS5003;43703;51.060;-0.086;2023-04-03T04:08:39;7;4;
57884;PMS5003;43703;51.060;-0.086;2023-04-03T04:11:04;5;4;
57884;PMS5003;43703;51.060;-0.086;2023-04-03T04:13:30;3;3;
57884;PMS5003;43703;51.060;-0.086;2023-04-03T04:15:55;2;2;
57884;PMS5003;43703;51.060;-0.086;2023-04-03T04:18:20;6;4;
57884;PMS5003;43703;51.060;-0.086;2023-04-03T04:20:45;7;6;
57884;PMS5003;43703;51.060;-0.086;2023-04-03T04:23:10;3;3;
57884;PMS5003;43703;51.060;-0.086;2023-04-03T04:25:35;5;4;
57884;PMS5003;43703;51.060;-0.086;2023-04-03T04:28:00;3;3;
57884;PMS5003;43703;51.060;-0.086;2023-04-03T04:30:25;5;5;
57884;PMS5003;43703;51.060;-0.086;2023-04-03T04:32:50;5;4;
57884;PMS5003;43703;51.060;-0.086;2023-04-03T04:35:16;4;4;
57884;PMS5003;43703;51.060;-0.086;2023-04-03T04:37:41;5;5;
57884;PMS5003;43703;51.060;-0.086;2023-04-03T04:40:06;4;4;
57884;PMS5003;43703;51.060;-0.086;2023-04-03T04:42:31;6;6;
57884;PMS5003;43703;51.060;-0.086;2023-04-03T04:44:56;5;5;
57884;PMS5003;43703;51.060;-0.086;2023-04-03T04:47:21;5;5;
57884;PMS5003;43703;51.060;-0.086;2023-04-03T04:49:46;9;6;
57884;PMS5003;43703;51.060;-0.086;2023-04-03T04:52:11;6;5;
57884;PMS5003;43703;51.060;-0.086;2023-04-03T04:54:36;6;6;
57884;PMS5003;43703;51.060;-0.086;2023-04-03T04:57:01;5;5;
57884;PMS5003;43703;51.060;-0.086;2023-04-03T04:59:27;5;5;
57884;PMS5003;43703;51.060;-0.086;2023-04-03T05:01:52;7;7;
57884;PMS5003;43703;51.060;-0.086;2023-04-03T05:04:17;7;7;
57884;PMS5003;43703;51.060;-0.086;2023-04-03T05:06:43;8;7;
57884;PMS5003;43703;51.060;-0.086;2023-04-03T05:09:08;6;5;
57884;PMS5003;43703;51.060;-0.086;2023-04-03T05:11:33;9;6;
57884;PMS5003;43703;51.060;-0.086;2023-04-03T05:13:58;7;7;
57884;PMS5003;43703;51.060;-0.086;2023-04-03T05:16:24;7;6;
57884;PMS5003;43703;51.060;-0.086;2023-04-03T05:18:49;7;7;
57884;PMS5003;43703;51.060;-0.086;2023-04-03T05:21:14;4;4;
57884;PMS5003;43703;51.060;-0.086;2023-04-03T05:23:39;7;6;
57884;PMS5003;43703;51.060;-0.086;2023-04-03T05:26:04;9;9;
57884;PMS5003;43703;51.060;-0.086;2023-04-03T05:28:30;11;9;
57884;PMS5003;43703;51.060;-0.086;2023-04-03T05:30:55;8;6;
57884;PMS5003;43703;51.060;-0.086;2023-04-03T05:33:25;7;7;
57884;PMS5003;43703;51.060;-0.086;2023-04-03T05:35:45;6;5;
57884;PMS5003;43703;51.060;-0.086;2023-04-03T05:38:10;8;7;
57884;PMS5003;43703;51.060;-0.086;2023-04-03T05:40:35;12;8;
57884;PMS5003;43703;51.060;-0.086;2023-04-03T05:43:00;4;4;
57884;PMS5003;43703;51.060;-0.086;2023-04-03T05:45:25;6;6;
57884;PMS5003;43703;51.060;-0.086;2023-04-03T05:47:50;6;6;
57884;PMS5003;43703;51.060;-0.086;2023-04-03T05:50:16;7;6;
57884;PMS5003;43703;51.060;-0.086;2023-04-03T05:52:42;7;6;
57884;PMS5003;43703;51.060;-0.086;2023-04-03T05:55:06;8;8;
57884;PMS5003;43703;51.060;-0.086;2023-04-03T05:57:31;9;6;
57884;PMS5003;43703;51.060;-0.086;2023-04-03T05:59:56;8;7;
57884;PMS5003;43703;51.060;-0.086;2023-04-03T06:02:22;7;7;
57884;PMS5003;43703;51.060;-0.086;2023-04-03T06:04:46;6;5;
57884;PMS5003;43703;51.060;-0.086;2023-04-03T06:07:12;9;8;
57884;PMS5003;43703;51.060;-0.086;2023-04-03T06:09:36;10;8;
57884;PMS5003;43703;51.060;-0.086;2023-04-03T06:12:02;7;7;
57884;PMS5003;43703;51.060;-0.086;2023-04-03T06:14:27;10;10;
57884;PMS5003;43703;51.060;-0.086;2023-04-03T06:16:52;8;8;
57884;PMS5003;43703;51.060;-0.086;2023-04-03T06:19:17;7;7;
57884;PMS5003;43703;51.060;-0.086;2023-04-03T06:21:42;8;8;
57884;PMS5003;43703;51.060;-0.086;2023-04-03T06:24:07;10;8;
57884;PMS5003;43703;51.060;-0.086;2023-04-03T06:26:32;9;8;
57884;PMS5003;43703;51.060;-0.086;2023-04-03T06:28:58;8;7;
57884;PMS5003;43703;51.060;-0.086;2023-04-03T06:31:23;12;10;
57884;PMS5003;43703;51.060;-0.086;2023-04-03T06:33:48;8;8;
57884;PMS5003;43703;51.060;-0.086;2023-04-03T06:36:14;11;9;
57884;PMS5003;43703;51.060;-0.086;2023-04-03T06:38:39;6;6;
57884;PMS5003;43703;51.060;-0.086;2023-04-03T06:41:04;10;10;
57884;PMS5003;43703;51.060;-0.086;2023-04-03T06:43:29;9;7;
57884;PMS5003;43703;51.060;-0.086;2023-04-03T06:45:54;10;9;
57884;PMS5003;43703;51.060;-0.086;2023-04-03T06:48:19;6;6;
57884;PMS5003;43703;51.060;-0.086;2023-04-03T06:50:46;8;8;
57884;PMS5003;43703;51.060;-0.086;2023-04-03T06:53:09;6;6;
57884;PMS5003;43703;51.060;-0.086;2023-04-03T06:55:36;10;10;
57884;PMS5003;43703;51.060;-0.086;2023-04-03T06:58:00;9;8;
57884;PMS5003;43703;51.060;-0.086;2023-04-03T07:00:25;11;11;
57884;PMS5003;43703;51.060;-0.086;2023-04-03T07:02:51;9;9;
57884;PMS5003;43703;51.060;-0.086;2023-04-03T07:05:16;10;9;
57884;PMS5003;43703;51.060;-0.086;2023-04-03T07:07:41;11;8;
57884;PMS5003;43703;51.060;-0.086;2023-04-03T07:10:07;10;7;
57884;PMS5003;43703;51.060;-0.086;2023-04-03T07:12:32;10;9;
57884;PMS5003;43703;51.060;-0.086;2023-04-03T07:14:57;8;8;
57884;PMS5003;43703;51.060;-0.086;2023-04-03T07:17:22;7;7;
57884;PMS5003;43703;51.060;-0.086;2023-04-03T07:19:47;10;9;
57884;PMS5003;43703;51.060;-0.086;2023-04-03T07:22:12;8;8;
57884;PMS5003;43703;51.060;-0.086;2023-04-03T07:24:37;10;10;
57884;PMS5003;43703;51.060;-0.086;2023-04-03T07:27:03;8;8;
57884;PMS5003;43703;51.060;-0.086;2023-04-03T07:29:28;12;12;
57884;PMS5003;43703;51.060;-0.086;2023-04-03T07:31:53;8;8;
57884;PMS5003;43703;51.060;-0.086;2023-04-03T07:34:18;8;8;
57884;PMS5003;43703;51.060;-0.086;2023-04-03T07:36:44;10;8;
57884;PMS5003;43703;51.060;-0.086;2023-04-03T07:39:09;13;10;
57884;PMS5003;43703;51.060;-0.086;2023-04-03T07:41:34;14;12;
57884;PMS5003;43703;51.060;-0.086;2023-04-03T07:44:00;12;11;
57884;PMS5003;43703;51.060;-0.086;2023-04-03T07:46:25;14;14;
57884;PMS5003;43703;51.060;-0.086;2023-04-03T07:48:50;11;10;
57884;PMS5003;43703;51.060;-0.086;2023-04-03T07:51:15;12;12;
57884;PMS5003;43703;51.060;-0.086;2023-04-03T07:53:41;11;11;
57884;PMS5003;43703;51.060;-0.086;2023-04-03T07:56:06;15;14;
57884;PMS5003;43703;51.060;-0.086;2023-04-03T07:58:31;12;11;
57884;PMS5003;43703;51.060;-0.086;2023-04-03T08:00:57;9;9;
57884;PMS5003;43703;51.060;-0.086;2023-04-03T08:03:22;13;12;
57884;PMS5003;43703;51.060;-0.086;2023-04-03T08:05:49;13;13;
57884;PMS5003;43703;51.060;-0.086;2023-04-03T08:08:14;11;11;
57884;PMS5003;43703;51.060;-0.086;2023-04-03T08:10:39;12;11;
57884;PMS5003;43703;51.060;-0.086;2023-04-03T08:13:04;10;10;
57884;PMS5003;43703;51.060;-0.086;2023-04-03T08:15:29;14;14;
57884;PMS5003;43703;51.060;-0.086;2023-04-03T08:17:55;15;13;
57884;PMS5003;43703;51.060;-0.086;2023-04-03T08:20:21;14;14;
57884;PMS5003;43703;51.060;-0.086;2023-04-03T08:22:46;17;14;
57884;PMS5003;43703;51.060;-0.086;2023-04-03T08:25:11;18;16;
57884;PMS5003;43703;51.060;-0.086;2023-04-03T08:27:36;18;18;
57884;PMS5003;43703;51.060;-0.086;2023-04-03T08:30:03;17;16;
57884;PMS5003;43703;51.060;-0.086;2023-04-03T08:32:27;18;15;
57884;PMS5003;43703;51.060;-0.086;2023-04-03T08:34:53;13;13;
57884;PMS5003;43703;51.060;-0.086;2023-04-03T08:37:19;14;14;
57884;PMS5003;43703;51.060;-0.086;2023-04-03T08:39:45;11;11;
57884;PMS5003;43703;51.060;-0.086;2023-04-03T08:42:14;14;14;
57884;PMS5003;43703;51.060;-0.086;2023-04-03T08:44:38;15;12;
57884;PMS5003;43703;51.060;-0.086;2023-04-03T08:47:04;18;15;
57884;PMS5003;43703;51.060;-0.086;2023-04-03T08:49:28;14;14;
57884;PMS5003;43703;51.060;-0.086;2023-04-03T08:51:53;14;12;
57884;PMS5003;43703;51.060;-0.086;2023-04-03T08:54:23;17;14;
57884;PMS5003;43703;51.060;-0.086;2023-04-03T08:56:44;12;12;
57884;PMS5003;43703;51.060;-0.086;2023-04-03T08:59:14;12;12;
57884;PMS5003;43703;51.060;-0.086;2023-04-03T09:01:37;11;11;
57884;PMS5003;43703;51.060;-0.086;2023-04-03T09:04:02;12;12;
57884;PMS5003;43703;51.060;-0.086;2023-04-03T09:06:28;14;14;
57884;PMS5003;43703;51.060;-0.086;2023-04-03T09:08:56;12;12;
57884;PMS5003;43703;51.060;-0.086;2023-04-03T09:11:20;12;11;
57884;PMS5003;43703;51.060;-0.086;2023-04-03T09:13:46;14;14;
57884;PMS5003;43703;51.060;-0.086;2023-04-03T09:16:14;14;13;
57884;PMS5003;43703;51.060;-0.086;2023-04-03T09:18:36;17;15;
57884;PMS5003;43703;51.060;-0.086;2023-04-03T09:21:03;17;17;
57884;PMS5003;43703;51.060;-0.086;2023-04-03T09:23:28;13;13;
57884;PMS5003;43703;51.060;-0.086;2023-04-03T09:25:56;15;15;
57884;PMS5003;43703;51.060;-0.086;2023-04-03T09:28:18;14;14;
57884;PMS5003;43703;51.060;-0.086;2023-04-03T09:30:43;15;14;
57884;PMS5003;43703;51.060;-0.086;2023-04-03T09:33:09;14;14;
57884;PMS5003;43703;51.060;-0.086;2023-04-03T09:35:35;15;15;
57884;PMS5003;43703;51.060;-0.086;2023-04-03T09:38:00;16;16;
57884;PMS5003;43703;51.060;-0.086;2023-04-03T09:40:29;24;22;
57884;PMS5003;43703;51.060;-0.086;2023-04-03T09:42:51;20;18;
57884;PMS5003;43703;51.060;-0.086;2023-04-03T09:45:21;21;21;
57884;PMS5003;43703;51.060;-0.086;2023-04-03T09:47:41;17;16;
57884;PMS5003;43703;51.060;-0.086;2023-04-03T09:52:32;19;17;
57884;PMS5003;43703;51.060;-0.086;2023-04-03T09:54:58;21;21;
57884;PMS5003;43703;51.060;-0.086;2023-04-03T09:57:23;23;23;
57884;PMS5003;43703;51.060;-0.086;2023-04-03T10:04:40;18;18;
57884;PMS5003;43703;51.060;-0.086;2023-04-03T10:07:04;20;20;
57884;PMS5003;43703;51.060;-0.086;2023-04-03T10:09:31;20;19;
57884;PMS5003;43703;51.060;-0.086;2023-04-03T10:11:59;21;21;
57884;PMS5003;43703;51.060;-0.086;2023-04-03T10:14:26;17;15;
57884;PMS5003;43703;51.060;-0.086;2023-04-03T10:16:47;19;19;
57884;PMS5003;43703;51.060;-0.086;2023-04-03T10:19:21;18;17;
57884;PMS5003;43703;51.060;-0.086;2023-04-03T10:21:39;17;17;
57884;PMS5003;43703;51.060;-0.086;2023-04-03T10:24:06;20;19;
57884;PMS5003;43703;51.060;-0.086;2023-04-03T10:26:31;21;20;
57884;PMS5003;43703;51.060;-0.086;2023-04-03T10:28:54;17;17;
57884;PMS5003;43703;51.060;-0.086;2023-04-03T10:31:21;19;18;
57884;PMS5003;43703;51.060;-0.086;2023-04-03T10:33:47;19;19;
57884;PMS5003;43703;51.060;-0.086;2023-04-03T10:36:12;20;19;
57884;PMS5003;43703;51.060;-0.086;2023-04-03T10:38:38;21;21;
57884;PMS5003;43703;51.060;-0.086;2023-04-03T10:41:02;20;20;
57884;PMS5003;43703;51.060;-0.086;2023-04-03T10:43:28;21;21;
57884;PMS5003;43703;51.060;-0.086;2023-04-03T10:45:53;23;20;
57884;PMS5003;43703;51.060;-0.086;2023-04-03T10:48:17;24;22;
57884;PMS5003;43703;51.060;-0.086;2023-04-03T10:50:43;20;19;
57884;PMS5003;43703;51.060;-0.086;2023-04-03T10:53:08;23;22;
57884;PMS5003;43703;51.060;-0.086;2023-04-03T10:55:34;22;22;
57884;PMS5003;43703;51.060;-0.086;2023-04-03T10:57:57;19;19;
57884;PMS5003;43703;51.060;-0.086;2023-04-03T11:00:22;21;20;
57884;PMS5003;43703;51.060;-0.086;2023-04-03T11:02:48;21;21;
57884;PMS5003;43703;51.060;-0.086;2023-04-03T11:05:14;22;22;
57884;PMS5003;43703;51.060;-0.086;2023-04-03T11:07:38;21;21;
57884;PMS5003;43703;51.060;-0.086;2023-04-03T11:10:05;21;20;
57884;PMS5003;43703;51.060;-0.086;2023-04-03T11:12:32;18;18;
57884;PMS5003;43703;51.060;-0.086;2023-04-03T11:14:55;21;19;
57884;PMS5003;43703;51.060;-0.086;2023-04-03T11:17:22;23;21;
57884;PMS5003;43703;51.060;-0.086;2023-04-03T11:19:47;22;22;
57884;PMS5003;43703;51.060;-0.086;2023-04-03T11:22:11;21;21;
57884;PMS5003;43703;51.060;-0.086;2023-04-03T11:24:36;20;19;
57884;PMS5003;43703;51.060;-0.086;2023-04-03T11:27:01;16;16;
57884;PMS5003;43703;51.060;-0.086;2023-04-03T11:29:27;23;21;
57884;PMS5003;43703;51.060;-0.086;2023-04-03T11:31:58;20;19;
57884;PMS5003;43703;51.060;-0.086;2023-04-03T11:34:21;22;20;
57884;PMS5003;43703;51.060;-0.086;2023-04-03T11:36:43;17;17;
57884;PMS5003;43703;51.060;-0.086;2023-04-03T11:39:10;20;17;
57884;PMS5003;43703;51.060;-0.086;2023-04-03T11:41:34;21;16;
57884;PMS5003;43703;51.060;-0.086;2023-04-03T11:44:00;16;16;
57884;PMS5003;43703;51.060;-0.086;2023-04-03T11:48:51;18;18;
57884;PMS5003;43703;51.060;-0.086;2023-04-03T11:53:42;19;19;
57884;PMS5003;43703;51.060;-0.086;2023-04-03T11:58:33;21;19;
57884;PMS5003;43703;51.060;-0.086;2023-04-03T12:01:00;19;19;
57884;PMS5003;43703;51.060;-0.086;2023-04-03T12:05:49;20;20;
57884;PMS5003;43703;51.060;-0.086;2023-04-03T12:08:16;22;21;
57884;PMS5003;43703;51.060;-0.086;2023-04-03T12:10:39;18;17;
57884;PMS5003;43703;51.060;-0.086;2023-04-03T12:17:56;17;17;
57884;PMS5003;43703;51.060;-0.086;2023-04-03T12:27:40;17;17;
57884;PMS5003;43703;51.060;-0.086;2023-04-03T12:30:11;17;16;
57884;PMS5003;43703;51.060;-0.086;2023-04-03T12:35:01;15;15;
57884;PMS5003;43703;51.060;-0.086;2023-04-03T12:37:28;15;15;
57884;PMS5003;43703;51.060;-0.086;2023-04-03T12:39:50;16;16;
57884;PMS5003;43703;51.060;-0.086;2023-04-03T12:42:16;15;15;
57884;PMS5003;43703;51.060;-0.086;2023-04-03T12:44:38;19;18;
57884;PMS5003;43703;51.060;-0.086;2023-04-03T12:47:21;15;15;
57884;PMS5003;43703;51.060;-0.086;2023-04-03T12:49:33;14;14;
57884;PMS5003;43703;51.060;-0.086;2023-04-03T12:51:52;16;14;
57884;PMS5003;43703;51.060;-0.086;2023-04-03T12:54:18;12;12;
57884;PMS5003;43703;51.060;-0.086;2023-04-03T12:56:42;16;14;
57884;PMS5003;43703;51.060;-0.086;2023-04-03T13:01:32;13;13;
57884;PMS5003;43703;51.060;-0.086;2023-04-03T13:03:57;13;12;
57884;PMS5003;43703;51.060;-0.086;2023-04-03T13:06:23;13;12;
57884;PMS5003;43703;51.060;-0.086;2023-04-03T13:08:49;14;14;
57884;PMS5003;43703;51.060;-0.086;2023-04-03T13:11:12;13;12;
57884;PMS5003;43703;51.060;-0.086;2023-04-03T13:13:38;16;14;
57884;PMS5003;43703;51.060;-0.086;2023-04-03T13:16:07;14;12;
57884;PMS5003;43703;51.060;-0.086;2023-04-03T13:18:29;12;12;
57884;PMS5003;43703;51.060;-0.086;2023-04-03T13:20:53;13;13;
57884;PMS5003;43703;51.060;-0.086;2023-04-03T13:23:18;14;12;
57884;PMS5003;43703;51.060;-0.086;2023-04-03T13:25:43;13;13;
57884;PMS5003;43703;51.060;-0.086;2023-04-03T13:28:10;13;10;
57884;PMS5003;43703;51.060;-0.086;2023-04-03T13:30:35;15;15;
57884;PMS5003;43703;51.060;-0.086;2023-04-03T13:33:00;12;12;
57884;PMS5003;43703;51.060;-0.086;2023-04-03T13:35:25;12;12;
57884;PMS5003;43703;51.060;-0.086;2023-04-03T13:37:54;10;10;
57884;PMS5003;43703;51.060;-0.086;2023-04-03T13:40:14;14;14;
57884;PMS5003;43703;51.060;-0.086;2023-04-03T13:42:39;10;10;
57884;PMS5003;43703;51.060;-0.086;2023-04-03T13:47:37;13;10;
57884;PMS5003;43703;51.060;-0.086;2023-04-03T13:52:23;10;9;
57884;PMS5003;43703;51.060;-0.086;2023-04-03T13:54:45;8;8;
57884;PMS5003;43703;51.060;-0.086;2023-04-03T13:57:11;9;9;
57884;PMS5003;43703;51.060;-0.086;2023-04-03T13:59:34;10;10;
57884;PMS5003;43703;51.060;-0.086;2023-04-03T14:04:25;10;10;
57884;PMS5003;43703;51.060;-0.086;2023-04-03T14:06:49;6;6;
57884;PMS5003;43703;51.060;-0.086;2023-04-03T14:09:14;9;8;
57884;PMS5003;43703;51.060;-0.086;2023-04-03T14:11:40;11;10;
57884;PMS5003;43703;51.060;-0.086;2023-04-03T14:14:09;7;6;
57884;PMS5003;43703;51.060;-0.086;2023-04-03T14:16:31;6;6;
57884;PMS5003;43703;51.060;-0.086;2023-04-03T14:18:55;6;6;
57884;PMS5003;43703;51.060;-0.086;2023-04-03T14:21:20;9;7;
57884;PMS5003;43703;51.060;-0.086;2023-04-03T14:23:45;7;7;
57884;PMS5003;43703;51.060;-0.086;2023-04-03T14:26:11;6;6;
57884;PMS5003;43703;51.060;-0.086;2023-04-03T14:28:35;8;8;
57884;PMS5003;43703;51.060;-0.086;2023-04-03T14:31:00;7;7;
57884;PMS5003;43703;51.060;-0.086;2023-04-03T14:33:25;8;8;
57884;PMS5003;43703;51.060;-0.086;2023-04-03T14:35:50;6;6;
57884;PMS5003;43703;51.060;-0.086;2023-04-03T14:40:41;13;11;
57884;PMS5003;43703;51.060;-0.086;2023-04-03T14:43:08;7;7;
57884;PMS5003;43703;51.060;-0.086;2023-04-03T14:45:32;5;4;
57884;PMS5003;43703;51.060;-0.086;2023-04-03T14:47:57;4;4;
57884;PMS5003;43703;51.060;-0.086;2023-04-03T14:50:23;7;7;
57884;PMS5003;43703;51.060;-0.086;2023-04-03T14:52:48;6;6;
57884;PMS5003;43703;51.060;-0.086;2023-04-03T14:55:14;5;5;
57884;PMS5003;43703;51.060;-0.086;2023-04-03T14:57:37;5;5;
57884;PMS5003;43703;51.060;-0.086;2023-04-03T15:00:03;6;6;
57884;PMS5003;43703;51.060;-0.086;2023-04-03T15:02:32;8;8;
57884;PMS5003;43703;51.060;-0.086;2023-04-03T15:04:53;6;6;
57884;PMS5003;43703;51.060;-0.086;2023-04-03T15:07:18;5;5;
57884;PMS5003;43703;51.060;-0.086;2023-04-03T15:09:43;6;5;
57884;PMS5003;43703;51.060;-0.086;2023-04-03T15:12:08;6;6;
57884;PMS5003;43703;51.060;-0.086;2023-04-03T15:14:33;5;5;
57884;PMS5003;43703;51.060;-0.086;2023-04-03T15:16:58;7;7;
57884;PMS5003;43703;51.060;-0.086;2023-04-03T15:19:23;6;6;
57884;PMS5003;43703;51.060;-0.086;2023-04-03T15:21:48;4;4;
57884;PMS5003;43703;51.060;-0.086;2023-04-03T15:24:13;7;6;
57884;PMS5003;43703;51.060;-0.086;2023-04-03T15:26:38;4;4;
57884;PMS5003;43703;51.060;-0.086;2023-04-03T15:29:04;7;7;
57884;PMS5003;43703;51.060;-0.086;2023-04-03T15:31:29;9;8;
57884;PMS5003;43703;51.060;-0.086;2023-04-03T15:33:54;11;10;
57884;PMS5003;43703;51.060;-0.086;2023-04-03T15:36:19;10;9;
57884;PMS5003;43703;51.060;-0.086;2023-04-03T15:38:45;14;12;
57884;PMS5003;43703;51.060;-0.086;2023-04-03T15:41:10;11;11;
57884;PMS5003;43703;51.060;-0.086;2023-04-03T15:43:35;13;13;
57884;PMS5003;43703;51.060;-0.086;2023-04-03T15:46:02;9;9;
57884;PMS5003;43703;51.060;-0.086;2023-04-03T15:48:25;10;8;
57884;PMS5003;43703;51.060;-0.086;2023-04-03T15:50:51;12;10;
57884;PMS5003;43703;51.060;-0.086;2023-04-03T15:53:17;12;11;
57884;PMS5003;43703;51.060;-0.086;2023-04-03T15:55:42;13;11;
57884;PMS5003;43703;51.060;-0.086;2023-04-03T15:58:07;13;13;
57884;PMS5003;43703;51.060;-0.086;2023-04-03T16:00:32;13;13;
57884;PMS5003;43703;51.060;-0.086;2023-04-03T16:02:58;12;12;
57884;PMS5003;43703;51.060;-0.086;2023-04-03T16:05:22;19;16;
57884;PMS5003;43703;51.060;-0.086;2023-04-03T16:07:48;14;14;
57884;PMS5003;43703;51.060;-0.086;2023-04-03T16:10:14;15;15;
57884;PMS5003;43703;51.060;-0.086;2023-04-03T16:12:39;15;15;
57884;PMS5003;43703;51.060;-0.086;2023-04-03T16:15:05;15;13;
57884;PMS5003;43703;51.060;-0.086;2023-04-03T16:17:29;14;13;
57884;PMS5003;43703;51.060;-0.086;2023-04-03T16:19:54;16;15;
57884;PMS5003;43703;51.060;-0.086;2023-04-03T16:22:20;18;18;
57884;PMS5003;43703;51.060;-0.086;2023-04-03T16:24:46;16;16;
57884;PMS5003;43703;51.060;-0.086;2023-04-03T16:27:11;17;17;
57884;PMS5003;43703;51.060;-0.086;2023-04-03T16:29:37;19;19;
57884;PMS5003;43703;51.060;-0.086;2023-04-03T16:32:02;19;16;
57884;PMS5003;43703;51.060;-0.086;2023-04-03T16:34:27;17;17;
57884;PMS5003;43703;51.060;-0.086;2023-04-03T16:36:53;17;15;
57884;PMS5003;43703;51.060;-0.086;2023-04-03T16:39:18;17;15;
57884;PMS5003;43703;51.060;-0.086;2023-04-03T16:41:43;20;17;
57884;PMS5003;43703;51.060;-0.086;2023-04-03T16:44:08;20;20;
57884;PMS5003;43703;51.060;-0.086;2023-04-03T16:46:34;19;17;
57884;PMS5003;43703;51.060;-0.086;2023-04-03T16:48:59;18;16;
57884;PMS5003;43703;51.060;-0.086;2023-04-03T16:51:24;16;16;
57884;PMS5003;43703;51.060;-0.086;2023-04-03T16:53:50;18;17;